Time;durP1;ratioP1;P1;durP2;ratioP2;P2;SDS_P1;SDS_P2;PMS_P1;PMS_P2;Temp;Humidity;BMP_temperature;BMP_pressure;BME280_temperature;BME280_humidity;BME280_pressure;Samples;Min_cycle;Max_cycle;Signal;HPM_P1;HPM_P2
2022/08/04 00:03:14;;;;;;;1.63;1.13;;;22.80;93.80;;;;;;10289555;28;20050;-60
2022/08/04 00:08:29;;;;;;;1.80;0.80;;;22.70;94.10;;;;;;10300559;28;20057;-60
2022/08/04 00:13:35;;;;;;;2.70;0.70;;;22.60;94.30;;;;;;10281208;28;20057;-60
2022/08/04 00:18:44;;;;;;;1.02;0.70;;;22.60;94.50;;;;;;10297894;28;20382;-60
2022/08/04 00:23:47;;;;;;;2.80;1.42;;;22.50;95.10;;;;;;10296609;28;20061;-60
2022/08/04 00:29:09;;;;;;;5.15;1.00;;;22.50;95.60;;;;;;10290992;28;20054;-60
2022/08/04 00:34:12;;;;;;;5.32;0.75;;;22.40;96.00;;;;;;10276322;28;20051;-60
2022/08/04 00:39:15;;;;;;;6.40;0.90;;;22.40;96.50;;;;;;10298305;28;20050;-60
2022/08/04 00:44:38;;;;;;;2.97;0.60;;;22.20;97.10;;;;;;10293201;28;20054;-60
2022/08/04 00:49:58;;;;;;;1.25;0.50;;;22.20;97.40;;;;;;10295754;28;20050;-61
2022/08/04 00:55:09;;;;;;;1.13;0.60;;;22.10;98.10;;;;;;10293918;28;20090;-60
2022/08/04 01:00:13;;;;;;;4.47;0.85;;;22.00;98.30;;;;;;10301168;28;20062;-61
2022/08/04 01:05:25;;;;;;;2.75;0.70;;;22.00;98.40;;;;;;10295023;28;20058;-60
2022/08/04 01:10:50;;;;;;;0.80;0.60;;;22.00;99.10;;;;;;10290709;28;20039;-60
2022/08/04 01:16:06;;;;;;;4.80;0.65;;;22.00;99.40;;;;;;10282345;28;20055;-60
2022/08/04 01:21:29;;;;;;;1.10;0.60;;;21.90;99.60;;;;;;10288018;28;20049;-58
2022/08/04 01:26:49;;;;;;;1.02;0.73;;;21.80;99.70;;;;;;10284206;28;20504;-59
2022/08/04 01:32:38;;;;;;;0.80;0.60;;;21.70;99.90;;;;;;10292460;28;20073;-60
2022/08/04 01:38:12;;;;;;;1.55;0.70;;;21.70;99.90;;;;;;10293460;28;20462;-58
2022/08/04 01:43:23;;;;;;;0.75;0.50;;;21.60;99.90;;;;;;10297788;28;20055;-60
2022/08/04 01:48:26;;;;;;;1.15;0.70;;;21.50;99.90;;;;;;10292965;28;20046;-60
2022/08/04 01:53:33;;;;;;;0.75;0.60;;;21.40;99.90;;;;;;10299791;28;20050;-60
2022/08/04 01:58:37;;;;;;;1.60;0.70;;;21.40;99.90;;;;;;10285594;28;20050;-60
2022/08/04 02:03:43;;;;;;;1.05;0.60;;;21.30;99.90;;;;;;10274541;28;20417;-60
2022/08/04 02:09:22;;;;;;;1.35;0.70;;;21.30;99.90;;;;;;10298572;28;20142;-60
2022/08/04 02:14:58;;;;;;;1.10;0.70;;;21.30;99.90;;;;;;10299666;28;20379;-60
2022/08/04 02:20:26;;;;;;;3.50;0.50;;;21.30;99.90;;;;;;10264280;28;20058;-61
2022/08/04 02:25:31;;;;;;;2.55;0.90;;;21.30;99.90;;;;;;10285525;28;20046;-60
2022/08/04 02:30:47;;;;;;;4.55;0.60;;;21.30;99.90;;;;;;10294177;28;20113;-60
2022/08/04 02:35:55;;;;;;;1.10;0.70;;;21.20;99.90;;;;;;10297293;28;20054;-61
2022/08/04 02:41:00;;;;;;;2.95;0.68;;;21.20;99.90;;;;;;10289701;28;20417;-60
2022/08/04 02:46:03;;;;;;;1.23;0.75;;;21.10;99.90;;;;;;10287706;28;20557;-61
2022/08/04 02:51:30;;;;;;;1.02;0.70;;;21.10;99.90;;;;;;10287299;28;20050;-60
2022/08/04 02:56:34;;;;;;;1.55;0.90;;;21.10;99.90;;;;;;10274890;28;20062;-60
2022/08/04 03:01:40;;;;;;;1.30;0.98;;;21.00;99.90;;;;;;10288233;28;20138;-60
2022/08/04 03:07:23;;;;;;;1.50;0.80;;;20.90;99.90;;;;;;10286859;28;20068;-60
2022/08/04 03:12:36;;;;;;;4.33;1.30;;;20.80;99.90;;;;;;10275886;28;20054;-60
2022/08/04 03:18:09;;;;;;;2.15;0.80;;;20.70;99.90;;;;;;10285006;28;20104;-59
2022/08/04 03:23:34;;;;;;;4.70;0.80;;;20.80;99.90;;;;;;10296397;28;20031;-59
2022/08/04 03:28:45;;;;;;;1.63;0.90;;;20.70;99.90;;;;;;10275441;28;20043;-59
2022/08/04 03:34:21;;;;;;;1.30;0.77;;;20.60;99.90;;;;;;10281641;28;20398;-59
2022/08/04 03:40:00;;;;;;;1.53;0.73;;;20.50;99.90;;;;;;10283131;28;20055;-57
2022/08/04 03:45:38;;;;;;;1.75;0.88;;;20.40;99.90;;;;;;10295047;28;20057;-58
2022/08/04 03:56:48;;;;;;;0.70;0.60;;;20.40;99.90;;;;;;10284874;28;20524;-62
2022/08/04 04:02:13;;;;;;;4.03;0.80;;;20.40;99.90;;;;;;10279410;28;20108;-62
2022/08/04 04:07:46;;;;;;;4.05;0.82;;;20.50;99.90;;;;;;10294490;28;20046;-62
2022/08/04 04:13:21;;;;;;;1.13;0.80;;;20.50;99.90;;;;;;10287335;28;20473;-63
2022/08/04 04:18:28;;;;;;;3.72;0.90;;;20.50;99.90;;;;;;10292955;28;20058;-63
2022/08/04 04:23:31;;;;;;;1.42;1.00;;;20.40;99.90;;;;;;10291400;28;20548;-63
2022/08/04 04:28:34;;;;;;;3.17;0.85;;;20.50;99.90;;;;;;10310938;28;20042;-63
2022/08/04 04:34:07;;;;;;;2.42;0.80;;;20.50;99.90;;;;;;10294600;28;20055;-63
2022/08/04 04:39:35;;;;;;;5.55;1.10;;;20.60;99.90;;;;;;10301178;28;20113;-64
2022/08/04 04:44:55;;;;;;;4.05;0.98;;;20.50;99.90;;;;;;10286473;28;20130;-64
2022/08/04 04:50:36;;;;;;;1.27;0.80;;;20.60;99.90;;;;;;10293113;28;20059;-63
2022/08/04 04:55:51;;;;;;;1.35;0.68;;;20.70;99.90;;;;;;10270276;28;20108;-63
2022/08/04 05:01:10;;;;;;;2.65;1.00;;;20.80;99.90;;;;;;10290680;28;20497;-64
2022/08/04 05:06:30;;;;;;;3.03;1.10;;;20.80;99.90;;;;;;10304032;28;20104;-63
2022/08/04 05:11:55;;;;;;;1.17;0.73;;;20.90;99.90;;;;;;10296714;28;20054;-63
2022/08/04 05:17:05;;;;;;;3.03;0.95;;;21.00;99.90;;;;;;10303810;28;20446;-63
2022/08/04 05:22:11;;;;;;;2.67;0.63;;;21.00;99.90;;;;;;10293726;28;20050;-64
2022/08/04 05:27:20;;;;;;;1.90;0.57;;;21.10;99.90;;;;;;10291100;28;20141;-63
2022/08/04 05:32:37;;;;;;;2.10;0.80;;;21.20;99.90;;;;;;10276422;28;20517;-63
2022/08/04 05:37:42;;;;;;;2.40;0.70;;;21.30;99.90;;;;;;10289133;28;20445;-63
2022/08/04 05:42:45;;;;;;;1.50;0.97;;;21.50;99.90;;;;;;10296954;28;20046;-63
2022/08/04 05:47:47;;;;;;;1.92;1.10;;;21.60;99.90;;;;;;10293766;28;20070;-65
2022/08/04 05:52:50;;;;;;;0.95;0.68;;;21.60;99.90;;;;;;10284100;28;20050;-65
2022/08/04 05:58:01;;;;;;;4.60;0.98;;;21.80;99.90;;;;;;10285422;28;20158;-66
2022/08/04 06:03:04;;;;;;;1.08;0.90;;;21.90;99.90;;;;;;10277936;28;20081;-65
2022/08/04 06:08:06;;;;;;;1.35;0.70;;;22.10;99.90;;;;;;10295089;28;20044;-64
2022/08/04 06:13:18;;;;;;;4.03;1.13;;;22.20;99.90;;;;;;10294531;28;20045;-62
2022/08/04 06:18:44;;;;;;;1.02;0.65;;;22.40;99.90;;;;;;10298181;28;20083;-62
2022/08/04 06:24:10;;;;;;;2.70;0.70;;;22.60;99.90;;;;;;10290508;28;20050;-63
2022/08/04 06:29:22;;;;;;;2.35;0.77;;;22.80;99.90;;;;;;10292123;28;20090;-62
2022/08/04 06:34:29;;;;;;;1.00;0.70;;;23.10;99.90;;;;;;10297572;28;20046;-62
2022/08/04 06:39:32;;;;;;;5.03;0.95;;;23.30;99.90;;;;;;10304833;28;20053;-64
2022/08/04 06:44:35;;;;;;;1.27;0.70;;;23.50;99.90;;;;;;10294022;28;20128;-63
2022/08/04 06:49:38;;;;;;;3.92;1.08;;;23.70;99.90;;;;;;10309018;28;20050;-64
2022/08/04 06:55:00;;;;;;;2.92;0.82;;;23.90;99.90;;;;;;10311548;28;20090;-64
2022/08/04 07:00:09;;;;;;;8.45;0.73;;;24.10;99.90;;;;;;10300983;28;20460;-64
2022/08/04 07:05:11;;;;;;;9.05;0.80;;;24.20;99.90;;;;;;10287255;28;20054;-64
2022/08/04 07:10:14;;;;;;;2.35;0.60;;;24.40;99.90;;;;;;10263716;28;20490;-64
2022/08/04 07:15:24;;;;;;;1.27;0.80;;;24.60;99.90;;;;;;10291611;28;20540;-64
2022/08/04 07:20:27;;;;;;;3.22;0.75;;;24.90;99.60;;;;;;10285305;28;20165;-64
2022/08/04 07:25:37;;;;;;;2.55;0.70;;;25.20;99.50;;;;;;10293177;28;20062;-65
2022/08/04 07:31:01;;;;;;;3.47;0.70;;;25.40;98.20;;;;;;10292366;28;20129;-63
2022/08/04 07:36:03;;;;;;;2.25;0.73;;;25.70;97.90;;;;;;10286564;28;20108;-62
2022/08/04 07:41:14;;;;;;;3.30;0.70;;;25.90;97.30;;;;;;10296523;28;20050;-62
2022/08/04 07:46:36;;;;;;;4.00;0.80;;;26.10;97.20;;;;;;10281494;28;20054;-63
2022/08/04 07:51:38;;;;;;;2.58;0.63;;;26.40;96.80;;;;;;10278856;28;20039;-61
2022/08/04 07:56:42;;;;;;;3.55;0.80;;;26.60;95.40;;;;;;10283904;28;20060;-62
2022/08/04 08:01:45;;;;;;;2.28;0.73;;;26.80;95.60;;;;;;10288773;28;20149;-63
2022/08/04 08:06:47;;;;;;;6.35;0.68;;;27.00;94.60;;;;;;10286503;28;20061;-64
2022/08/04 08:11:52;;;;;;;6.10;0.70;;;27.30;94.40;;;;;;10306552;28;20432;-64
2022/08/04 08:17:13;;;;;;;5.10;0.70;;;27.50;93.70;;;;;;10287047;28;20130;-63
2022/08/04 08:22:15;;;;;;;4.90;0.60;;;27.60;93.20;;;;;;10292795;28;20607;-64
2022/08/04 08:27:17;;;;;;;0.85;0.60;;;27.80;92.70;;;;;;10279071;28;20085;-64
2022/08/04 08:32:19;;;;;;;4.22;0.60;;;27.90;93.10;;;;;;10302210;28;20050;-64
2022/08/04 08:37:46;;;;;;;6.50;1.13;;;28.00;92.60;;;;;;10297778;28;20500;-64
2022/08/04 08:43:09;;;;;;;2.65;0.63;;;28.30;92.80;;;;;;10297748;28;20177;-64
2022/08/04 08:49:00;;;;;;;2.00;0.60;;;28.50;92.10;;;;;;10308707;28;20149;-64
2022/08/04 08:54:28;;;;;;;5.28;0.57;;;28.70;91.00;;;;;;10281773;28;20054;-64
2022/08/04 08:59:52;;;;;;;1.75;0.60;;;29.00;90.60;;;;;;10293039;28;20046;-64
2022/08/04 09:04:53;;;;;;;1.15;0.60;;;29.40;88.80;;;;;;10303047;28;20101;-64
2022/08/04 09:10:22;;;;;;;1.15;0.50;;;29.70;87.40;;;;;;10262658;28;20085;-64
2022/08/04 09:15:59;;;;;;;0.50;0.40;;;30.00;83.10;;;;;;10305874;28;20038;-64
2022/08/04 09:21:25;;;;;;;1.77;0.50;;;30.30;82.10;;;;;;10220825;28;20054;-64
2022/08/04 09:26:59;;;;;;;2.60;0.45;;;30.40;80.70;;;;;;10289128;28;20043;-64
2022/08/04 09:32:25;;;;;;;1.65;0.65;;;30.40;81.50;;;;;;10286084;28;21082;-64
2022/08/04 09:37:41;;;;;;;2.10;0.75;;;30.60;82.00;;;;;;10289441;28;20481;-65
2022/08/04 09:43:00;;;;;;;2.10;0.50;;;30.80;81.10;;;;;;10303192;28;20061;-64
2022/08/04 09:48:11;;;;;;;3.85;0.60;;;31.00;80.80;;;;;;10307896;28;20477;-64
2022/08/04 09:53:34;;;;;;;1.35;0.75;;;31.20;80.70;;;;;;10290490;28;20057;-64
2022/08/04 09:58:55;;;;;;;1.98;0.60;;;31.30;79.70;;;;;;10282292;28;20106;-65
2022/08/04 10:04:08;;;;;;;4.63;0.80;;;31.60;79.20;;;;;;10304351;28;20046;-65
2022/08/04 10:09:16;;;;;;;5.30;0.77;;;31.70;80.20;;;;;;10287587;28;20035;-65
2022/08/04 10:14:50;;;;;;;4.43;0.80;;;31.80;78.00;;;;;;10290405;28;20039;-65
2022/08/04 10:20:27;;;;;;;1.00;0.60;;;32.10;77.40;;;;;;10281984;28;20058;-65
2022/08/04 10:26:06;;;;;;;0.68;0.60;;;32.40;76.20;;;;;;10308975;28;20042;-64
2022/08/04 10:31:26;;;;;;;2.00;0.60;;;32.90;77.10;;;;;;10298275;28;20051;-65
2022/08/04 10:36:45;;;;;;;1.20;0.60;;;33.10;74.60;;;;;;10296617;28;20050;-64
2022/08/04 10:42:02;;;;;;;2.35;0.70;;;33.10;73.70;;;;;;10291670;28;20066;-65
2022/08/04 10:47:12;;;;;;;1.90;0.63;;;33.70;91.60;;;;;;10292891;28;20112;-64
2022/08/04 10:52:25;;;;;;;1.10;0.47;;;34.40;90.30;;;;;;10289393;28;20038;-64
2022/08/04 10:57:42;;;;;;;7.50;0.50;;;34.60;90.20;;;;;;10304088;28;20047;-65
2022/08/04 11:03:09;;;;;;;1.08;0.57;;;34.80;90.10;;;;;;10300562;28;20544;-64
2022/08/04 11:08:34;;;;;;;4.10;1.02;;;35.40;90.20;;;;;;10290723;28;20047;-64
2022/08/04 11:13:55;;;;;;;1.40;0.50;;;35.40;88.30;;;;;;10259584;28;20070;-64
2022/08/04 11:19:22;;;;;;;0.95;0.60;;;35.40;86.40;;;;;;10267072;28;20096;-64
2022/08/04 11:25:06;;;;;;;0.50;0.40;;;35.90;85.50;;;;;;10255076;28;20485;-64
2022/08/04 11:30:10;;;;;;;2.73;0.60;;;36.10;86.60;;;;;;10281377;28;20047;-64
2022/08/04 11:35:27;;;;;;;3.22;0.50;;;;;;;;;;10249815;28;20050;-64
2022/08/04 11:40:36;;;;;;;1.40;0.30;;;35.90;87.30;;;;;;10271076;28;20050;-64
2022/08/04 11:45:49;;;;;;;1.50;0.35;;;35.70;83.60;;;;;;10265127;28;20054;-64
2022/08/04 11:50:52;;;;;;;0.68;0.40;;;35.90;81.90;;;;;;10249383;28;20095;-64
2022/08/04 11:56:02;;;;;;;0.60;0.30;;;35.70;77.90;;;;;;10269246;28;20047;-64
2022/08/04 12:01:20;;;;;;;0.43;0.30;;;35.60;75.20;;;;;;10275577;28;20050;-64
2022/08/04 12:06:56;;;;;;;0.82;0.30;;;36.10;76.70;;;;;;10265260;28;20054;-64
2022/08/04 12:12:49;;;;;;;0.30;0.30;;;36.50;73.50;;;;;;10285124;28;20105;-64
2022/08/04 12:18:22;;;;;;;0.60;0.40;;;36.60;72.80;;;;;;10290171;28;20054;-64
2022/08/04 12:23:42;;;;;;;0.93;0.30;;;36.80;71.10;;;;;;10270929;28;20363;-64
2022/08/04 12:28:47;;;;;;;0.40;0.30;;;36.90;72.30;;;;;;10281657;28;20044;-64
2022/08/04 12:34:16;;;;;;;1.60;0.30;;;37.50;72.00;;;;;;10285094;28;20066;-64
2022/08/04 12:39:19;;;;;;;1.73;0.55;;;;;;;;;;10289562;28;20050;-64
2022/08/04 12:44:22;;;;;;;0.33;0.20;;;;;;;;;;10297342;28;20058;-64
2022/08/04 12:49:39;;;;;;;0.30;0.20;;;;;;;;;;10301147;28;20054;-63
2022/08/04 12:54:44;;;;;;;4.97;0.23;;;;;;;;;;10299507;28;20085;-63
2022/08/04 12:59:47;;;;;;;0.20;0.20;;;;;;;;;;10295801;28;20077;-63
2022/08/04 13:05:01;;;;;;;1.05;0.95;;;;;;;;;;10296317;28;20430;-63
2022/08/04 13:10:11;;;;;;;0.90;0.20;;;;;;;;;;10270292;28;20054;-62
2022/08/04 13:15:21;;;;;;;0.25;0.22;;;37.60;48.50;;;;;;10257369;28;20057;-63
2022/08/04 13:20:29;;;;;;;1.55;0.25;;;38.00;49.00;;;;;;10266036;28;20112;-63
2022/08/04 13:25:32;;;;;;;1.42;0.20;;;37.50;49.00;;;;;;10259663;28;20128;-63
2022/08/04 13:30:59;;;;;;;0.97;0.20;;;37.30;49.10;;;;;;10253913;28;20109;-63
2022/08/04 13:36:02;;;;;;;2.38;0.30;;;37.00;49.60;;;;;;10262224;28;20050;-62
2022/08/04 13:41:05;;;;;;;3.17;0.30;;;36.90;49.60;;;;;;10228283;28;20400;-63
2022/08/04 13:46:11;;;;;;;1.17;0.20;;;36.70;49.60;;;;;;10235748;28;20042;-62
2022/08/04 13:51:17;;;;;;;0.28;0.20;;;36.80;50.10;;;;;;10257942;28;20035;-63
2022/08/04 13:56:21;;;;;;;2.30;0.30;;;37.10;50.40;;;;;;10264635;28;20050;-63
2022/08/04 14:01:26;;;;;;;;;;;37.20;50.50;;;;;;10254687;28;20494;-63
2022/08/04 14:07:08;;;;;;;0.45;0.30;;;37.50;49.80;;;;;;10256905;28;19959;-63
2022/08/04 14:12:21;;;;;;;1.77;0.38;;;37.90;49.20;;;;;;10240101;28;20054;-63
2022/08/04 14:17:43;;;;;;;0.80;0.30;;;38.90;48.40;;;;;;10269839;28;20050;-63
2022/08/04 14:22:44;;;;;;;0.30;0.30;;;39.80;49.10;;;;;;10275389;28;20063;-63
2022/08/04 14:27:51;;;;;;;0.98;0.30;;;39.80;48.00;;;;;;10255399;28;20067;-63
2022/08/04 14:32:55;;;;;;;1.15;0.40;;;40.30;48.00;;;;;;10245426;28;20059;-63
2022/08/04 14:38:04;;;;;;;0.40;0.40;;;39.80;64.70;;;;;;10259939;28;20054;-63
2022/08/04 14:43:07;;;;;;;0.88;0.40;;;40.50;48.20;;;;;;10274440;28;20046;-63
2022/08/04 14:48:12;;;;;;;1.33;0.20;;;39.50;47.50;;;;;;10241879;28;20047;-63
2022/08/04 14:53:16;;;;;;;2.58;0.30;;;38.90;47.90;;;;;;10258742;28;20038;-63
2022/08/04 14:58:29;;;;;;;1.80;0.40;;;38.40;48.60;;;;;;10255257;28;20054;-62
2022/08/04 15:03:41;;;;;;;2.10;0.35;;;38.00;49.60;;;;;;10255198;28;20307;-63
2022/08/04 15:08:56;;;;;;;3.72;0.30;;;38.00;49.60;;;;;;10271003;28;20053;-63
2022/08/04 15:13:58;;;;;;;4.22;0.50;;;38.20;49.20;;;;;;10289729;28;20481;-63
2022/08/04 15:19:00;;;;;;;0.68;0.32;;;38.60;48.60;;;;;;10285706;28;20058;-62
2022/08/04 15:24:02;;;;;;;4.43;0.40;;;38.80;48.70;;;;;;10281880;28;20062;-63
2022/08/04 15:29:11;;;;;;;0.38;0.28;;;39.70;48.60;;;;;;10283298;28;20062;-63
2022/08/04 15:34:17;;;;;;;2.13;0.40;;;39.70;47.40;;;;;;10295904;28;20062;-63
2022/08/04 15:39:30;;;;;;;0.63;0.35;;;40.00;48.20;;;;;;10311196;28;20554;-62
2022/08/04 15:45:03;;;;;;;0.30;0.30;;;40.00;52.20;;;;;;10291777;28;20050;-63
2022/08/04 15:50:07;;;;;;;3.60;0.40;;;40.10;47.40;;;;;;10275563;28;20047;-62
2022/08/04 15:55:33;;;;;;;0.95;0.47;;;39.50;47.10;;;;;;10283989;28;20053;-62
2022/08/04 16:00:50;;;;;;;0.95;0.30;;;38.70;47.60;;;;;;10279673;28;20062;-63
2022/08/04 16:05:52;;;;;;;0.32;0.30;;;38.80;48.20;;;;;;10282427;28;20051;-63
2022/08/04 16:10:54;;;;;;;0.50;0.30;;;38.10;48.20;;;;;;10276657;28;20057;-64
2022/08/04 16:15:56;;;;;;;1.25;0.40;;;38.30;48.20;;;;;;10287600;28;20068;-62
2022/08/04 16:21:15;;;;;;;2.80;0.38;;;38.50;48.90;;;;;;10283012;28;20046;-64
2022/08/04 16:26:51;;;;;;;2.05;0.40;;;38.70;48.50;;;;;;10307360;28;20046;-64
2022/08/04 16:32:05;;;;;;;2.30;0.30;;;38.70;48.20;;;;;;10245207;28;20082;-64
2022/08/04 16:37:12;;;;;;;3.22;0.30;;;38.60;49.10;;;;;;10285994;28;20054;-64
2022/08/04 16:42:29;;;;;;;2.05;0.28;;;37.90;47.40;;;;;;10298964;28;20047;-64
2022/08/04 16:47:46;;;;;;;1.60;0.30;;;37.70;48.00;;;;;;10291351;28;20528;-64
2022/08/04 16:52:51;;;;;;;0.40;0.30;;;37.90;48.80;;;;;;10299108;28;20105;-64
2022/08/04 16:57:55;;;;;;;1.33;0.32;;;37.90;48.50;;;;;;10296577;28;20058;-62
2022/08/04 17:03:00;;;;;;;0.25;0.25;;;38.20;48.00;;;;;;10296355;28;20042;-64
2022/08/04 17:08:03;;;;;;;2.15;0.25;;;38.10;47.70;;;;;;10280323;28;24229;-64
2022/08/04 17:13:26;;;;;;;2.53;0.20;;;38.20;47.60;;;;;;10247025;28;20157;-64
2022/08/04 17:18:52;;;;;;;4.05;0.30;;;38.50;47.90;;;;;;10253832;28;20117;-63
2022/08/04 17:23:58;;;;;;;0.40;0.25;;;38.30;47.70;;;;;;10258034;28;20110;-62
2022/08/04 17:29:17;;;;;;;1.27;0.40;;;38.30;48.10;;;;;;10262918;28;20102;-62
2022/08/04 17:34:21;;;;;;;1.73;0.30;;;38.20;48.00;;;;;;10268472;28;20568;-63
2022/08/04 17:39:29;;;;;;;1.50;0.68;;;38.20;47.90;;;;;;10253972;28;20219;-63
2022/08/04 17:45:15;;;;;;;0.88;0.40;;;38.20;48.90;;;;;;10256491;28;20106;-63
2022/08/04 17:50:37;;;;;;;3.10;0.30;;;38.10;48.40;;;;;;10270938;28;20129;-62
2022/08/04 17:55:46;;;;;;;3.50;0.30;;;38.30;48.10;;;;;;10261814;28;20062;-63
2022/08/04 18:01:01;;;;;;;0.32;0.20;;;38.50;48.80;;;;;;10244824;28;20138;-63
2022/08/04 18:06:22;;;;;;;0.80;0.30;;;38.10;48.30;;;;;;10256781;28;20058;-63
2022/08/04 18:11:26;;;;;;;2.10;0.28;;;37.80;49.20;;;;;;10299856;28;20134;-63
2022/08/04 18:16:43;;;;;;;1.60;0.28;;;37.00;49.20;;;;;;10298059;28;20056;-63
2022/08/04 18:21:46;;;;;;;2.38;0.65;;;36.60;49.90;;;;;;10296757;28;20057;-64
2022/08/04 18:27:02;;;;;;;0.40;0.20;;;35.90;50.90;;;;;;10295306;28;20421;-64
2022/08/04 18:32:08;;;;;;;2.17;0.30;;;35.40;51.50;;;;;;10308420;28;20077;-65
2022/08/04 18:37:10;;;;;;;1.60;0.30;;;35.10;52.10;;;;;;10293890;28;20061;-65
2022/08/04 18:42:31;;;;;;;0.65;0.40;;;34.80;52.80;;;;;;10283535;28;20400;-64
2022/08/04 18:47:39;;;;;;;2.13;0.30;;;34.30;52.90;;;;;;10299006;28;20043;-64
2022/08/04 18:53:00;;;;;;;1.50;0.55;;;34.00;53.00;;;;;;10293929;28;20057;-65
2022/08/04 18:58:01;;;;;;;1.77;0.40;;;33.70;53.60;;;;;;10301323;28;20138;-65
2022/08/04 19:03:08;;;;;;;0.38;0.20;;;33.50;53.70;;;;;;10289781;28;20046;-65
2022/08/04 19:08:10;;;;;;;1.92;0.30;;;33.30;54.10;;;;;;10287469;28;20052;-60
2022/08/04 19:13:31;;;;;;;1.58;0.30;;;33.10;55.20;;;;;;10280604;28;20046;-60
2022/08/04 19:18:35;;;;;;;0.80;0.30;;;32.70;55.40;;;;;;10307201;28;20046;-60
2022/08/04 19:23:37;;;;;;;4.00;0.40;;;32.50;55.90;;;;;;10300658;28;20118;-60
2022/08/04 19:28:58;;;;;;;1.35;0.30;;;32.30;56.20;;;;;;10299933;28;20136;-60
2022/08/04 19:34:01;;;;;;;0.82;0.40;;;32.10;56.60;;;;;;10298741;28;20058;-61
2022/08/04 19:39:08;;;;;;;3.03;0.65;;;32.00;56.90;;;;;;10292608;28;20046;-60
2022/08/04 19:44:12;;;;;;;5.22;0.50;;;31.80;57.20;;;;;;10289987;28;20051;-61
2022/08/04 19:49:15;;;;;;;4.53;0.32;;;31.70;57.50;;;;;;10287234;28;20046;-60
2022/08/04 19:54:38;;;;;;;2.38;0.38;;;31.60;57.90;;;;;;10289817;28;20426;-59
2022/08/04 19:59:41;;;;;;;3.15;0.40;;;31.40;58.30;;;;;;10292829;28;20047;-60
2022/08/04 20:04:48;;;;;;;0.85;0.50;;;31.20;58.70;;;;;;10300767;28;20119;-60
2022/08/04 20:09:52;;;;;;;1.00;0.40;;;31.10;58.90;;;;;;10284300;28;20057;-60
2022/08/04 20:14:54;;;;;;;14.30;0.50;;;30.90;59.50;;;;;;10275684;28;20108;-60
2022/08/04 20:19:56;;;;;;;2.65;0.60;;;30.80;60.60;;;;;;10289209;28;20051;-59
2022/08/04 20:24:58;;;;;;;2.33;0.40;;;30.60;61.90;;;;;;10297163;28;20050;-60
2022/08/04 20:30:19;;;;;;;1.65;0.52;;;30.50;62.90;;;;;;10284280;28;20057;-60
2022/08/04 20:35:27;;;;;;;4.88;0.50;;;30.40;63.80;;;;;;10296133;28;20049;-60
2022/08/04 20:40:29;;;;;;;4.70;0.40;;;30.30;64.60;;;;;;10289465;28;20031;-60
2022/08/04 20:45:31;;;;;;;6.18;0.40;;;30.20;65.20;;;;;;10281140;28;20072;-60
2022/08/04 20:50:52;;;;;;;3.88;0.40;;;30.10;65.60;;;;;;10293020;28;20075;-61
2022/08/04 20:55:54;;;;;;;1.55;0.40;;;30.00;66.10;;;;;;10288394;28;20054;-60
2022/08/04 21:00:57;;;;;;;3.50;0.50;;;29.90;66.10;;;;;;10290425;28;20051;-61
2022/08/04 21:05:59;;;;;;;1.35;0.40;;;29.80;66.50;;;;;;10286796;28;20662;-60
2022/08/04 21:11:02;;;;;;;1.98;0.40;;;29.70;67.20;;;;;;10296110;28;20038;-59
2022/08/04 21:16:07;;;;;;;3.60;0.50;;;29.70;67.80;;;;;;10293800;28;20063;-59
2022/08/04 21:21:09;;;;;;;2.33;0.40;;;29.60;68.70;;;;;;10292832;28;20780;-60
2022/08/04 21:26:21;;;;;;;6.47;0.52;;;29.50;69.50;;;;;;10272564;28;20054;-61
2022/08/04 21:31:26;;;;;;;4.97;0.60;;;29.40;70.70;;;;;;10284328;28;20051;-60
2022/08/04 21:36:28;;;;;;;2.53;0.40;;;29.30;71.70;;;;;;10276869;28;20054;-60
2022/08/04 21:41:32;;;;;;;2.10;0.50;;;29.20;72.70;;;;;;10295747;28;20061;-60
2022/08/04 21:46:34;;;;;;;3.55;0.63;;;29.20;73.60;;;;;;10297364;28;20508;-59
2022/08/04 21:51:45;;;;;;;4.75;0.50;;;29.10;74.40;;;;;;10282351;28;20503;-60
2022/08/04 21:57:02;;;;;;;1.58;1.17;;;29.00;75.10;;;;;;10271854;28;20058;-60
2022/08/04 22:02:04;;;;;;;2.47;0.50;;;28.90;75.70;;;;;;10284253;28;20051;-60
2022/08/04 22:07:08;;;;;;;1.80;0.65;;;28.80;76.40;;;;;;10305316;28;20051;-60
2022/08/04 22:12:10;;;;;;;3.00;0.70;;;28.70;76.90;;;;;;10291132;28;20046;-60
2022/08/04 22:17:13;;;;;;;1.60;0.57;;;28.70;77.40;;;;;;10277198;28;20065;-60
2022/08/04 22:22:19;;;;;;;2.33;0.77;;;28.50;78.00;;;;;;10295814;28;20090;-60
2022/08/04 22:32:48;;;;;;;9.35;1.15;;;28.30;78.80;;;;;;10297699;28;20138;-59
2022/08/04 22:37:51;;;;;;;3.65;0.68;;;28.10;79.70;;;;;;10281490;28;20117;-61
2022/08/04 22:43:09;;;;;;;4.20;0.50;;;28.00;80.90;;;;;;10282630;28;20051;-61
2022/08/04 22:48:36;;;;;;;3.38;0.60;;;27.90;81.00;;;;;;10276184;28;20186;-60
2022/08/04 22:53:38;;;;;;;1.88;0.50;;;27.80;81.40;;;;;;10293216;28;20097;-60
2022/08/04 22:58:42;;;;;;;4.68;0.75;;;27.80;82.00;;;;;;10281716;28;20050;-60
2022/08/04 23:03:46;;;;;;;3.97;0.52;;;27.70;83.30;;;;;;10285014;28;20050;-59
2022/08/04 23:08:56;;;;;;;4.32;0.70;;;27.60;83.50;;;;;;10272727;28;20050;-59
2022/08/04 23:14:00;;;;;;;2.38;0.60;;;27.50;84.80;;;;;;10301837;28;20055;-60
2022/08/04 23:19:01;;;;;;;2.05;0.40;;;27.40;85.70;;;;;;10285417;28;20065;-60
2022/08/04 23:24:10;;;;;;;8.80;0.73;;;27.40;86.40;;;;;;10288807;28;20138;-60
2022/08/04 23:29:14;;;;;;;1.20;0.90;;;27.30;86.80;;;;;;10290512;28;20126;-60
2022/08/04 23:34:15;;;;;;;4.82;0.77;;;27.30;87.50;;;;;;10289344;28;20081;-60
2022/08/04 23:39:19;;;;;;;8.85;0.50;;;27.20;88.30;;;;;;10287465;28;20088;-60
2022/08/04 23:44:23;;;;;;;4.28;0.80;;;27.10;89.30;;;;;;10296557;28;20125;-60
2022/08/04 23:49:29;;;;;;;1.60;0.60;;;27.10;90.00;;;;;;10280212;28;20051;-60
2022/08/04 23:54:45;;;;;;;5.03;0.68;;;27.10;90.10;;;;;;10289919;28;20278;-61
2022/08/04 23:59:52;;;;;;;2.80;0.70;;;27.10;92.00;;;;;;10291923;28;20061;-60
